sensor_id;sensor_type;location;lat;lon;timestamp;P1;durP1;ratioP1;P2;durP2;ratioP2
37857;SDS011;23695;55.868;37.472;2022-07-12T00:01:40;5.45;;;2.45;;
37857;SDS011;23695;55.868;37.472;2022-07-12T00:04:05;3.67;;;2.33;;
37857;SDS011;23695;55.868;37.472;2022-07-12T00:06:32;4.88;;;1.98;;
37857;SDS011;23695;55.868;37.472;2022-07-12T00:08:57;9.13;;;2.50;;
37857;SDS011;23695;55.868;37.472;2022-07-12T00:11:23;4.30;;;2.55;;
37857;SDS011;23695;55.868;37.472;2022-07-12T00:13:49;3.88;;;2.58;;
37857;SDS011;23695;55.868;37.472;2022-07-12T00:16:15;9.27;;;2.70;;
37857;SDS011;23695;55.868;37.472;2022-07-12T00:18:41;5.03;;;2.60;;
37857;SDS011;23695;55.868;37.472;2022-07-12T00:21:06;6.50;;;3.22;;
37857;SDS011;23695;55.868;37.472;2022-07-12T00:23:33;4.30;;;3.10;;
37857;SDS011;23695;55.868;37.472;2022-07-12T00:25:59;3.83;;;2.85;;
37857;SDS011;23695;55.868;37.472;2022-07-12T00:28:30;4.10;;;3.00;;
37857;SDS011;23695;55.868;37.472;2022-07-12T00:30:56;2.88;;;2.50;;
37857;SDS011;23695;55.868;37.472;2022-07-12T00:33:23;6.78;;;2.83;;
37857;SDS011;23695;55.868;37.472;2022-07-12T00:35:49;5.03;;;3.15;;
37857;SDS011;23695;55.868;37.472;2022-07-12T00:38:15;3.97;;;2.90;;
37857;SDS011;23695;55.868;37.472;2022-07-12T00:40:41;6.57;;;3.15;;
37857;SDS011;23695;55.868;37.472;2022-07-12T00:43:06;6.00;;;3.25;;
37857;SDS011;23695;55.868;37.472;2022-07-12T00:45:32;3.67;;;2.53;;
37857;SDS011;23695;55.868;37.472;2022-07-12T00:47:58;7.75;;;3.03;;
37857;SDS011;23695;55.868;37.472;2022-07-12T00:50:24;5.28;;;3.00;;
37857;SDS011;23695;55.868;37.472;2022-07-12T00:52:51;6.40;;;3.40;;
37857;SDS011;23695;55.868;37.472;2022-07-12T00:55:20;6.45;;;3.17;;
37857;SDS011;23695;55.868;37.472;2022-07-12T00:57:47;7.53;;;3.60;;
37857;SDS011;23695;55.868;37.472;2022-07-12T01:00:14;8.60;;;3.42;;
37857;SDS011;23695;55.868;37.472;2022-07-12T01:02:42;6.85;;;3.15;;
37857;SDS011;23695;55.868;37.472;2022-07-12T01:05:08;6.22;;;3.13;;
37857;SDS011;23695;55.868;37.472;2022-07-12T01:07:35;5.05;;;3.33;;
37857;SDS011;23695;55.868;37.472;2022-07-12T01:10:02;4.82;;;3.28;;
37857;SDS011;23695;55.868;37.472;2022-07-12T01:12:29;5.85;;;3.28;;
37857;SDS011;23695;55.868;37.472;2022-07-12T01:14:56;5.93;;;3.00;;
37857;SDS011;23695;55.868;37.472;2022-07-12T01:17:23;6.53;;;3.60;;
37857;SDS011;23695;55.868;37.472;2022-07-12T01:19:51;5.40;;;3.22;;
37857;SDS011;23695;55.868;37.472;2022-07-12T01:22:18;5.90;;;2.80;;
37857;SDS011;23695;55.868;37.472;2022-07-12T01:24:46;5.68;;;3.22;;
37857;SDS011;23695;55.868;37.472;2022-07-12T01:27:12;5.07;;;3.42;;
37857;SDS011;23695;55.868;37.472;2022-07-12T01:29:39;7.82;;;3.42;;
37857;SDS011;23695;55.868;37.472;2022-07-12T01:32:08;6.25;;;3.70;;
37857;SDS011;23695;55.868;37.472;2022-07-12T01:34:53;3.17;;;2.75;;
37857;SDS011;23695;55.868;37.472;2022-07-12T01:37:20;4.90;;;3.88;;
37857;SDS011;23695;55.868;37.472;2022-07-12T01:39:49;5.78;;;3.65;;
37857;SDS011;23695;55.868;37.472;2022-07-12T01:42:18;3.50;;;3.17;;
37857;SDS011;23695;55.868;37.472;2022-07-12T01:44:44;4.38;;;3.40;;
37857;SDS011;23695;55.868;37.472;2022-07-12T01:47:10;6.10;;;3.50;;
37857;SDS011;23695;55.868;37.472;2022-07-12T01:49:37;6.30;;;4.05;;
37857;SDS011;23695;55.868;37.472;2022-07-12T01:52:03;6.47;;;4.30;;
37857;SDS011;23695;55.868;37.472;2022-07-12T01:54:30;6.75;;;4.22;;
37857;SDS011;23695;55.868;37.472;2022-07-12T01:56:56;12.30;;;4.25;;
37857;SDS011;23695;55.868;37.472;2022-07-12T01:59:22;8.30;;;4.55;;
37857;SDS011;23695;55.868;37.472;2022-07-12T02:01:48;8.77;;;5.60;;
37857;SDS011;23695;55.868;37.472;2022-07-12T02:04:17;8.40;;;5.03;;
37857;SDS011;23695;55.868;37.472;2022-07-12T02:06:44;10.93;;;5.53;;
37857;SDS011;23695;55.868;37.472;2022-07-12T02:09:13;12.35;;;6.10;;
37857;SDS011;23695;55.868;37.472;2022-07-12T02:11:40;11.80;;;6.18;;
37857;SDS011;23695;55.868;37.472;2022-07-12T02:14:06;11.68;;;5.88;;
37857;SDS011;23695;55.868;37.472;2022-07-12T02:16:33;10.45;;;6.50;;
37857;SDS011;23695;55.868;37.472;2022-07-12T02:18:59;8.65;;;6.43;;
37857;SDS011;23695;55.868;37.472;2022-07-12T02:21:25;8.60;;;5.90;;
37857;SDS011;23695;55.868;37.472;2022-07-12T02:23:51;8.20;;;6.25;;
37857;SDS011;23695;55.868;37.472;2022-07-12T02:26:17;13.10;;;6.13;;
37857;SDS011;23695;55.868;37.472;2022-07-12T02:28:42;10.43;;;5.72;;
37857;SDS011;23695;55.868;37.472;2022-07-12T02:31:08;9.73;;;6.20;;
37857;SDS011;23695;55.868;37.472;2022-07-12T02:33:34;9.13;;;5.88;;
37857;SDS011;23695;55.868;37.472;2022-07-12T02:36:00;13.82;;;6.00;;
37857;SDS011;23695;55.868;37.472;2022-07-12T02:38:27;12.57;;;6.55;;
37857;SDS011;23695;55.868;37.472;2022-07-12T02:40:53;10.73;;;5.95;;
37857;SDS011;23695;55.868;37.472;2022-07-12T02:43:26;10.18;;;6.05;;
37857;SDS011;23695;55.868;37.472;2022-07-12T02:46:05;10.73;;;5.68;;
37857;SDS011;23695;55.868;37.472;2022-07-12T02:48:32;6.88;;;5.07;;
37857;SDS011;23695;55.868;37.472;2022-07-12T02:50:59;8.40;;;5.25;;
37857;SDS011;23695;55.868;37.472;2022-07-12T02:53:25;17.48;;;6.13;;
37857;SDS011;23695;55.868;37.472;2022-07-12T02:55:51;9.13;;;5.70;;
37857;SDS011;23695;55.868;37.472;2022-07-12T02:58:17;8.80;;;5.25;;
37857;SDS011;23695;55.868;37.472;2022-07-12T03:00:42;8.80;;;5.25;;
37857;SDS011;23695;55.868;37.472;2022-07-12T03:03:10;15.20;;;5.47;;
37857;SDS011;23695;55.868;37.472;2022-07-12T03:05:38;11.80;;;5.63;;
37857;SDS011;23695;55.868;37.472;2022-07-12T03:08:05;8.45;;;4.70;;
37857;SDS011;23695;55.868;37.472;2022-07-12T03:10:32;9.02;;;5.25;;
37857;SDS011;23695;55.868;37.472;2022-07-12T03:12:58;11.27;;;5.70;;
37857;SDS011;23695;55.868;37.472;2022-07-12T03:15:24;14.20;;;5.85;;
37857;SDS011;23695;55.868;37.472;2022-07-12T03:17:50;16.52;;;5.90;;
37857;SDS011;23695;55.868;37.472;2022-07-12T03:20:15;10.45;;;5.20;;
37857;SDS011;23695;55.868;37.472;2022-07-12T03:22:42;12.63;;;5.95;;
37857;SDS011;23695;55.868;37.472;2022-07-12T03:25:09;8.18;;;5.25;;
37857;SDS011;23695;55.868;37.472;2022-07-12T03:27:36;9.30;;;5.50;;
37857;SDS011;23695;55.868;37.472;2022-07-12T03:30:02;12.40;;;5.88;;
37857;SDS011;23695;55.868;37.472;2022-07-12T03:32:29;12.57;;;4.75;;
37857;SDS011;23695;55.868;37.472;2022-07-12T03:34:55;10.13;;;5.80;;
37857;SDS011;23695;55.868;37.472;2022-07-12T03:37:21;11.82;;;4.43;;
37857;SDS011;23695;55.868;37.472;2022-07-12T03:39:47;13.27;;;5.10;;
37857;SDS011;23695;55.868;37.472;2022-07-12T03:42:12;7.63;;;4.40;;
37857;SDS011;23695;55.868;37.472;2022-07-12T03:44:38;7.80;;;4.90;;
37857;SDS011;23695;55.868;37.472;2022-07-12T03:47:04;4.82;;;3.90;;
37857;SDS011;23695;55.868;37.472;2022-07-12T03:49:30;8.52;;;4.78;;
37857;SDS011;23695;55.868;37.472;2022-07-12T03:51:56;13.00;;;5.13;;
37857;SDS011;23695;55.868;37.472;2022-07-12T03:54:22;8.68;;;4.43;;
37857;SDS011;23695;55.868;37.472;2022-07-12T03:56:48;9.63;;;4.88;;
37857;SDS011;23695;55.868;37.472;2022-07-12T03:59:32;12.40;;;5.65;;
37857;SDS011;23695;55.868;37.472;2022-07-12T04:01:58;14.07;;;5.22;;
37857;SDS011;23695;55.868;37.472;2022-07-12T04:04:24;7.80;;;4.97;;
37857;SDS011;23695;55.868;37.472;2022-07-12T04:06:50;11.05;;;5.18;;
37857;SDS011;23695;55.868;37.472;2022-07-12T04:09:15;8.18;;;5.30;;
37857;SDS011;23695;55.868;37.472;2022-07-12T04:11:41;13.10;;;4.97;;
37857;SDS011;23695;55.868;37.472;2022-07-12T04:14:07;9.88;;;5.35;;
37857;SDS011;23695;55.868;37.472;2022-07-12T04:16:33;9.10;;;5.38;;
37857;SDS011;23695;55.868;37.472;2022-07-12T04:18:59;9.32;;;5.03;;
37857;SDS011;23695;55.868;37.472;2022-07-12T04:21:24;11.90;;;5.38;;
37857;SDS011;23695;55.868;37.472;2022-07-12T04:23:50;8.98;;;5.75;;
37857;SDS011;23695;55.868;37.472;2022-07-12T04:26:16;6.22;;;4.82;;
37857;SDS011;23695;55.868;37.472;2022-07-12T04:28:42;10.40;;;5.53;;
37857;SDS011;23695;55.868;37.472;2022-07-12T04:31:07;13.50;;;5.88;;
37857;SDS011;23695;55.868;37.472;2022-07-12T04:33:35;14.20;;;5.90;;
37857;SDS011;23695;55.868;37.472;2022-07-12T04:36:01;11.15;;;5.38;;
37857;SDS011;23695;55.868;37.472;2022-07-12T04:38:27;12.52;;;5.18;;
37857;SDS011;23695;55.868;37.472;2022-07-12T04:40:53;13.70;;;5.43;;
37857;SDS011;23695;55.868;37.472;2022-07-12T04:43:18;11.95;;;5.38;;
37857;SDS011;23695;55.868;37.472;2022-07-12T04:45:44;12.68;;;6.07;;
37857;SDS011;23695;55.868;37.472;2022-07-12T04:48:10;11.20;;;5.05;;
37857;SDS011;23695;55.868;37.472;2022-07-12T04:50:37;8.40;;;5.13;;
37857;SDS011;23695;55.868;37.472;2022-07-12T04:53:04;13.90;;;5.43;;
37857;SDS011;23695;55.868;37.472;2022-07-12T04:55:30;9.20;;;6.10;;
37857;SDS011;23695;55.868;37.472;2022-07-12T04:57:56;11.40;;;5.57;;
37857;SDS011;23695;55.868;37.472;2022-07-12T05:00:22;12.40;;;5.65;;
37857;SDS011;23695;55.868;37.472;2022-07-12T05:02:48;12.30;;;5.47;;
37857;SDS011;23695;55.868;37.472;2022-07-12T05:05:14;9.98;;;5.60;;
37857;SDS011;23695;55.868;37.472;2022-07-12T05:07:40;12.25;;;6.22;;
37857;SDS011;23695;55.868;37.472;2022-07-12T05:10:07;10.55;;;5.50;;
37857;SDS011;23695;55.868;37.472;2022-07-12T05:12:36;12.43;;;5.50;;
37857;SDS011;23695;55.868;37.472;2022-07-12T05:15:03;9.93;;;5.88;;
37857;SDS011;23695;55.868;37.472;2022-07-12T05:17:31;10.45;;;5.97;;
37857;SDS011;23695;55.868;37.472;2022-07-12T05:19:56;13.27;;;5.68;;
37857;SDS011;23695;55.868;37.472;2022-07-12T05:22:22;15.40;;;5.65;;
37857;SDS011;23695;55.868;37.472;2022-07-12T05:24:48;15.90;;;9.68;;
37857;SDS011;23695;55.868;37.472;2022-07-12T05:27:14;9.68;;;5.40;;
37857;SDS011;23695;55.868;37.472;2022-07-12T05:29:40;9.90;;;4.82;;
37857;SDS011;23695;55.868;37.472;2022-07-12T05:32:06;11.88;;;5.32;;
37857;SDS011;23695;55.868;37.472;2022-07-12T05:34:32;8.73;;;5.38;;
37857;SDS011;23695;55.868;37.472;2022-07-12T05:36:58;9.02;;;4.80;;
37857;SDS011;23695;55.868;37.472;2022-07-12T05:39:24;9.20;;;4.50;;
37857;SDS011;23695;55.868;37.472;2022-07-12T05:41:50;6.85;;;4.68;;
37857;SDS011;23695;55.868;37.472;2022-07-12T05:44:16;8.75;;;4.55;;
37857;SDS011;23695;55.868;37.472;2022-07-12T05:46:47;11.05;;;4.50;;
37857;SDS011;23695;55.868;37.472;2022-07-12T05:49:13;13.23;;;4.82;;
37857;SDS011;23695;55.868;37.472;2022-07-12T05:51:38;10.10;;;4.72;;
37857;SDS011;23695;55.868;37.472;2022-07-12T05:54:23;16.75;;;5.00;;
37857;SDS011;23695;55.868;37.472;2022-07-12T05:56:49;11.15;;;5.20;;
37857;SDS011;23695;55.868;37.472;2022-07-12T05:59:17;11.73;;;5.00;;
37857;SDS011;23695;55.868;37.472;2022-07-12T06:01:43;13.25;;;5.60;;
37857;SDS011;23695;55.868;37.472;2022-07-12T06:04:09;13.30;;;5.20;;
37857;SDS011;23695;55.868;37.472;2022-07-12T06:06:35;12.95;;;5.65;;
37857;SDS011;23695;55.868;37.472;2022-07-12T06:09:02;10.77;;;5.18;;
37857;SDS011;23695;55.868;37.472;2022-07-12T06:11:28;10.90;;;5.00;;
37857;SDS011;23695;55.868;37.472;2022-07-12T06:13:54;16.50;;;5.50;;
37857;SDS011;23695;55.868;37.472;2022-07-12T06:16:20;11.45;;;5.43;;
37857;SDS011;23695;55.868;37.472;2022-07-12T06:18:46;11.32;;;5.18;;
37857;SDS011;23695;55.868;37.472;2022-07-12T06:21:12;13.00;;;5.30;;
37857;SDS011;23695;55.868;37.472;2022-07-12T06:23:38;9.82;;;5.38;;
37857;SDS011;23695;55.868;37.472;2022-07-12T06:26:03;12.27;;;4.68;;
37857;SDS011;23695;55.868;37.472;2022-07-12T06:28:29;13.68;;;5.18;;
37857;SDS011;23695;55.868;37.472;2022-07-12T06:30:55;12.32;;;4.78;;
37857;SDS011;23695;55.868;37.472;2022-07-12T06:33:20;14.80;;;5.22;;
37857;SDS011;23695;55.868;37.472;2022-07-12T06:35:46;11.82;;;5.18;;
37857;SDS011;23695;55.868;37.472;2022-07-12T06:38:12;8.30;;;4.97;;
37857;SDS011;23695;55.868;37.472;2022-07-12T06:40:38;10.35;;;5.00;;
37857;SDS011;23695;55.868;37.472;2022-07-12T06:43:08;8.98;;;5.35;;
37857;SDS011;23695;55.868;37.472;2022-07-12T06:45:38;11.35;;;5.55;;
37857;SDS011;23695;55.868;37.472;2022-07-12T06:48:04;11.98;;;5.22;;
37857;SDS011;23695;55.868;37.472;2022-07-12T06:50:31;15.60;;;5.20;;
37857;SDS011;23695;55.868;37.472;2022-07-12T06:52:57;12.38;;;5.65;;
37857;SDS011;23695;55.868;37.472;2022-07-12T06:55:23;20.08;;;5.95;;
37857;SDS011;23695;55.868;37.472;2022-07-12T06:57:49;13.18;;;6.13;;
37857;SDS011;23695;55.868;37.472;2022-07-12T07:00:15;10.93;;;6.47;;
37857;SDS011;23695;55.868;37.472;2022-07-12T07:02:41;15.50;;;6.63;;
37857;SDS011;23695;55.868;37.472;2022-07-12T07:05:07;12.68;;;6.15;;
37857;SDS011;23695;55.868;37.472;2022-07-12T07:07:33;14.32;;;6.95;;
37857;SDS011;23695;55.868;37.472;2022-07-12T07:09:59;14.95;;;7.28;;
37857;SDS011;23695;55.868;37.472;2022-07-12T07:12:25;16.27;;;7.05;;
37857;SDS011;23695;55.868;37.472;2022-07-12T07:14:51;18.88;;;6.75;;
37857;SDS011;23695;55.868;37.472;2022-07-12T07:17:17;12.90;;;5.72;;
37857;SDS011;23695;55.868;37.472;2022-07-12T07:19:47;12.85;;;6.57;;
37857;SDS011;23695;55.868;37.472;2022-07-12T07:22:13;14.50;;;7.32;;
37857;SDS011;23695;55.868;37.472;2022-07-12T07:24:39;15.77;;;6.75;;
37857;SDS011;23695;55.868;37.472;2022-07-12T07:27:05;11.65;;;6.95;;
37857;SDS011;23695;55.868;37.472;2022-07-12T07:29:32;12.27;;;7.07;;
37857;SDS011;23695;55.868;37.472;2022-07-12T07:32:16;12.63;;;6.35;;
37857;SDS011;23695;55.868;37.472;2022-07-12T07:34:42;13.02;;;6.50;;
37857;SDS011;23695;55.868;37.472;2022-07-12T07:37:08;17.58;;;7.57;;
37857;SDS011;23695;55.868;37.472;2022-07-12T07:39:34;16.13;;;7.43;;
37857;SDS011;23695;55.868;37.472;2022-07-12T07:42:00;15.85;;;7.57;;
37857;SDS011;23695;55.868;37.472;2022-07-12T07:44:27;14.93;;;6.88;;
37857;SDS011;23695;55.868;37.472;2022-07-12T07:46:53;12.35;;;7.03;;
37857;SDS011;23695;55.868;37.472;2022-07-12T07:49:19;14.75;;;7.43;;
37857;SDS011;23695;55.868;37.472;2022-07-12T07:51:45;16.98;;;6.88;;
37857;SDS011;23695;55.868;37.472;2022-07-12T07:54:11;16.98;;;6.70;;
37857;SDS011;23695;55.868;37.472;2022-07-12T07:56:36;14.63;;;6.75;;
37857;SDS011;23695;55.868;37.472;2022-07-12T07:59:02;12.80;;;6.82;;
37857;SDS011;23695;55.868;37.472;2022-07-12T08:01:28;15.50;;;6.82;;
37857;SDS011;23695;55.868;37.472;2022-07-12T08:04:18;14.27;;;6.57;;
37857;SDS011;23695;55.868;37.472;2022-07-12T08:06:45;13.82;;;6.57;;
37857;SDS011;23695;55.868;37.472;2022-07-12T08:09:12;14.20;;;6.75;;
37857;SDS011;23695;55.868;37.472;2022-07-12T08:11:38;17.02;;;7.47;;
37857;SDS011;23695;55.868;37.472;2022-07-12T08:14:04;19.80;;;7.82;;
37857;SDS011;23695;55.868;37.472;2022-07-12T08:16:32;14.18;;;6.63;;
37857;SDS011;23695;55.868;37.472;2022-07-12T08:18:58;24.05;;;7.28;;
37857;SDS011;23695;55.868;37.472;2022-07-12T08:21:24;12.93;;;6.43;;
37857;SDS011;23695;55.868;37.472;2022-07-12T08:23:50;10.90;;;6.65;;
37857;SDS011;23695;55.868;37.472;2022-07-12T08:26:16;10.40;;;6.47;;
37857;SDS011;23695;55.868;37.472;2022-07-12T08:28:42;18.67;;;6.90;;
37857;SDS011;23695;55.868;37.472;2022-07-12T08:31:09;15.32;;;6.60;;
37857;SDS011;23695;55.868;37.472;2022-07-12T08:33:35;17.10;;;7.18;;
37857;SDS011;23695;55.868;37.472;2022-07-12T08:36:01;14.55;;;6.28;;
37857;SDS011;23695;55.868;37.472;2022-07-12T08:38:27;12.80;;;6.10;;
37857;SDS011;23695;55.868;37.472;2022-07-12T08:40:53;13.70;;;6.03;;
37857;SDS011;23695;55.868;37.472;2022-07-12T08:43:18;18.60;;;5.57;;
37857;SDS011;23695;55.868;37.472;2022-07-12T08:45:44;7.70;;;4.90;;
37857;SDS011;23695;55.868;37.472;2022-07-12T08:48:10;12.73;;;5.18;;
37857;SDS011;23695;55.868;37.472;2022-07-12T08:50:36;11.52;;;4.93;;
37857;SDS011;23695;55.868;37.472;2022-07-12T08:53:02;11.52;;;5.22;;
37857;SDS011;23695;55.868;37.472;2022-07-12T08:55:34;8.00;;;4.80;;
37857;SDS011;23695;55.868;37.472;2022-07-12T08:58:02;13.82;;;4.95;;
37857;SDS011;23695;55.868;37.472;2022-07-12T09:00:39;9.77;;;4.43;;
37857;SDS011;23695;55.868;37.472;2022-07-12T09:03:05;9.52;;;4.70;;
37857;SDS011;23695;55.868;37.472;2022-07-12T09:05:32;12.23;;;4.80;;
37857;SDS011;23695;55.868;37.472;2022-07-12T09:08:03;10.90;;;4.28;;
37857;SDS011;23695;55.868;37.472;2022-07-12T09:10:31;6.78;;;4.13;;
37857;SDS011;23695;55.868;37.472;2022-07-12T09:13:00;10.82;;;4.63;;
37857;SDS011;23695;55.868;37.472;2022-07-12T09:15:27;9.52;;;4.68;;
37857;SDS011;23695;55.868;37.472;2022-07-12T09:17:57;9.20;;;4.28;;
37857;SDS011;23695;55.868;37.472;2022-07-12T09:22:59;9.15;;;4.22;;
37857;SDS011;23695;55.868;37.472;2022-07-12T09:25:26;7.13;;;4.18;;
37857;SDS011;23695;55.868;37.472;2022-07-12T09:27:58;7.47;;;3.53;;
37857;SDS011;23695;55.868;37.472;2022-07-12T09:30:28;9.00;;;4.53;;
37857;SDS011;23695;55.868;37.472;2022-07-12T09:33:04;10.13;;;4.47;;
37857;SDS011;23695;55.868;37.472;2022-07-12T09:36:01;10.70;;;4.15;;
37857;SDS011;23695;55.868;37.472;2022-07-12T09:38:38;7.68;;;4.22;;
37857;SDS011;23695;55.868;37.472;2022-07-12T09:41:10;9.93;;;4.30;;
37857;SDS011;23695;55.868;37.472;2022-07-12T09:43:42;6.28;;;3.33;;
37857;SDS011;23695;55.868;37.472;2022-07-12T09:46:08;6.90;;;3.58;;
37857;SDS011;23695;55.868;37.472;2022-07-12T09:48:35;7.22;;;3.65;;
37857;SDS011;23695;55.868;37.472;2022-07-12T09:51:03;11.40;;;3.83;;
37857;SDS011;23695;55.868;37.472;2022-07-12T09:53:32;6.70;;;3.75;;
37857;SDS011;23695;55.868;37.472;2022-07-12T09:56:06;8.52;;;3.83;;
37857;SDS011;23695;55.868;37.472;2022-07-12T09:58:37;7.97;;;3.85;;
37857;SDS011;23695;55.868;37.472;2022-07-12T10:01:06;10.10;;;4.30;;
37857;SDS011;23695;55.868;37.472;2022-07-12T10:03:35;9.65;;;4.13;;
37857;SDS011;23695;55.868;37.472;2022-07-12T10:06:02;10.27;;;3.80;;
37857;SDS011;23695;55.868;37.472;2022-07-12T10:08:29;5.78;;;4.07;;
37857;SDS011;23695;55.868;37.472;2022-07-12T10:10:56;7.47;;;3.90;;
37857;SDS011;23695;55.868;37.472;2022-07-12T10:13:23;10.73;;;4.18;;
37857;SDS011;23695;55.868;37.472;2022-07-12T10:15:50;7.90;;;3.65;;
37857;SDS011;23695;55.868;37.472;2022-07-12T10:18:17;11.75;;;3.95;;
37857;SDS011;23695;55.868;37.472;2022-07-12T10:20:47;8.57;;;3.90;;
37857;SDS011;23695;55.868;37.472;2022-07-12T10:25:46;10.40;;;4.40;;
37857;SDS011;23695;55.868;37.472;2022-07-12T10:28:15;6.38;;;4.07;;
37857;SDS011;23695;55.868;37.472;2022-07-12T10:30:42;8.48;;;3.97;;
37857;SDS011;23695;55.868;37.472;2022-07-12T10:33:16;9.02;;;4.07;;
37857;SDS011;23695;55.868;37.472;2022-07-12T10:35:59;7.15;;;3.85;;
37857;SDS011;23695;55.868;37.472;2022-07-12T10:38:34;9.32;;;3.78;;
37857;SDS011;23695;55.868;37.472;2022-07-12T10:41:16;8.18;;;4.63;;
37857;SDS011;23695;55.868;37.472;2022-07-12T10:44:02;14.45;;;3.70;;
37857;SDS011;23695;55.868;37.472;2022-07-12T10:46:31;8.82;;;3.95;;
37857;SDS011;23695;55.868;37.472;2022-07-12T10:49:45;7.63;;;3.45;;
37857;SDS011;23695;55.868;37.472;2022-07-12T10:54:36;9.95;;;2.85;;
37857;SDS011;23695;55.868;37.472;2022-07-12T10:57:06;8.25;;;2.90;;
37857;SDS011;23695;55.868;37.472;2022-07-12T10:59:33;7.10;;;2.95;;
37857;SDS011;23695;55.868;37.472;2022-07-12T11:02:00;7.72;;;2.90;;
37857;SDS011;23695;55.868;37.472;2022-07-12T11:04:26;6.78;;;2.03;;
37857;SDS011;23695;55.868;37.472;2022-07-12T11:06:53;9.38;;;2.58;;
37857;SDS011;23695;55.868;37.472;2022-07-12T11:09:22;7.13;;;1.88;;
37857;SDS011;23695;55.868;37.472;2022-07-12T11:11:50;5.80;;;1.38;;
37857;SDS011;23695;55.868;37.472;2022-07-12T11:14:27;6.05;;;1.13;;
37857;SDS011;23695;55.868;37.472;2022-07-12T11:16:59;5.30;;;1.33;;
37857;SDS011;23695;55.868;37.472;2022-07-12T11:19:26;4.00;;;1.20;;
37857;SDS011;23695;55.868;37.472;2022-07-12T11:21:54;7.47;;;1.20;;
37857;SDS011;23695;55.868;37.472;2022-07-12T11:26:49;7.32;;;1.08;;
37857;SDS011;23695;55.868;37.472;2022-07-12T11:29:16;7.05;;;1.30;;
37857;SDS011;23695;55.868;37.472;2022-07-12T11:31:43;4.00;;;1.25;;
37857;SDS011;23695;55.868;37.472;2022-07-12T11:34:24;5.82;;;1.10;;
37857;SDS011;23695;55.868;37.472;2022-07-12T11:36:58;7.93;;;1.00;;
37857;SDS011;23695;55.868;37.472;2022-07-12T11:39:35;5.82;;;1.75;;
37857;SDS011;23695;55.868;37.472;2022-07-12T11:42:02;3.80;;;1.08;;
37857;SDS011;23695;55.868;37.472;2022-07-12T11:44:45;3.30;;;1.25;;
37857;SDS011;23695;55.868;37.472;2022-07-12T11:47:16;4.38;;;1.00;;
37857;SDS011;23695;55.868;37.472;2022-07-12T11:49:44;8.82;;;1.30;;
37857;SDS011;23695;55.868;37.472;2022-07-12T11:52:13;6.22;;;1.52;;
37857;SDS011;23695;55.868;37.472;2022-07-12T11:54:40;5.03;;;1.50;;
37857;SDS011;23695;55.868;37.472;2022-07-12T11:57:06;4.93;;;1.13;;
37857;SDS011;23695;55.868;37.472;2022-07-12T11:59:36;5.22;;;1.27;;
37857;SDS011;23695;55.868;37.472;2022-07-12T12:02:04;9.50;;;1.52;;
37857;SDS011;23695;55.868;37.472;2022-07-12T12:07:09;8.93;;;1.77;;
37857;SDS011;23695;55.868;37.472;2022-07-12T12:15:17;10.23;;;1.83;;
37857;SDS011;23695;55.868;37.472;2022-07-12T12:17:58;3.70;;;1.50;;
37857;SDS011;23695;55.868;37.472;2022-07-12T12:20:29;4.15;;;1.50;;
37857;SDS011;23695;55.868;37.472;2022-07-12T12:23:00;5.63;;;1.60;;
37857;SDS011;23695;55.868;37.472;2022-07-12T12:25:27;4.05;;;1.50;;
37857;SDS011;23695;55.868;37.472;2022-07-12T12:30:29;5.82;;;1.80;;
37857;SDS011;23695;55.868;37.472;2022-07-12T12:32:57;10.88;;;1.60;;
37857;SDS011;23695;55.868;37.472;2022-07-12T12:35:34;6.25;;;1.63;;
37857;SDS011;23695;55.868;37.472;2022-07-12T12:38:03;6.57;;;1.90;;
37857;SDS011;23695;55.868;37.472;2022-07-12T12:40:36;4.88;;;1.33;;
37857;SDS011;23695;55.868;37.472;2022-07-12T12:43:09;11.02;;;1.80;;
37857;SDS011;23695;55.868;37.472;2022-07-12T12:45:48;3.13;;;1.10;;
37857;SDS011;23695;55.868;37.472;2022-07-12T12:48:19;3.00;;;1.13;;
37857;SDS011;23695;55.868;37.472;2022-07-12T12:50:47;5.38;;;1.15;;
37857;SDS011;23695;55.868;37.472;2022-07-12T12:53:15;7.35;;;1.30;;
37857;SDS011;23695;55.868;37.472;2022-07-12T12:55:51;6.82;;;1.33;;
37857;SDS011;23695;55.868;37.472;2022-07-12T12:58:18;9.45;;;1.40;;
37857;SDS011;23695;55.868;37.472;2022-07-12T13:00:46;5.85;;;1.30;;
37857;SDS011;23695;55.868;37.472;2022-07-12T13:03:15;10.13;;;1.83;;
37857;SDS011;23695;55.868;37.472;2022-07-12T13:05:43;5.97;;;1.33;;
37857;SDS011;23695;55.868;37.472;2022-07-12T13:08:10;6.85;;;1.52;;
37857;SDS011;23695;55.868;37.472;2022-07-12T13:10:38;6.97;;;1.52;;
37857;SDS011;23695;55.868;37.472;2022-07-12T13:13:05;9.10;;;1.60;;
37857;SDS011;23695;55.868;37.472;2022-07-12T13:15:32;3.90;;;1.60;;
37857;SDS011;23695;55.868;37.472;2022-07-12T13:17:59;4.53;;;1.35;;
37857;SDS011;23695;55.868;37.472;2022-07-12T13:20:27;5.50;;;1.83;;
37857;SDS011;23695;55.868;37.472;2022-07-12T13:22:54;6.00;;;2.00;;
37857;SDS011;23695;55.868;37.472;2022-07-12T13:25:20;7.25;;;1.70;;
37857;SDS011;23695;55.868;37.472;2022-07-12T13:27:47;4.82;;;2.00;;
37857;SDS011;23695;55.868;37.472;2022-07-12T13:30:14;12.32;;;2.35;;
37857;SDS011;23695;55.868;37.472;2022-07-12T13:32:41;9.68;;;2.00;;
37857;SDS011;23695;55.868;37.472;2022-07-12T13:35:08;14.45;;;2.67;;
37857;SDS011;23695;55.868;37.472;2022-07-12T13:37:36;7.15;;;1.98;;
37857;SDS011;23695;55.868;37.472;2022-07-12T13:40:03;3.55;;;1.50;;
37857;SDS011;23695;55.868;37.472;2022-07-12T13:42:43;3.95;;;1.45;;
37857;SDS011;23695;55.868;37.472;2022-07-12T13:45:15;4.43;;;1.80;;
37857;SDS011;23695;55.868;37.472;2022-07-12T13:47:43;3.92;;;1.60;;
37857;SDS011;23695;55.868;37.472;2022-07-12T13:50:11;6.97;;;1.40;;
37857;SDS011;23695;55.868;37.472;2022-07-12T13:52:39;14.32;;;1.48;;
37857;SDS011;23695;55.868;37.472;2022-07-12T13:55:10;5.88;;;1.60;;
37857;SDS011;23695;55.868;37.472;2022-07-12T13:57:37;3.83;;;1.30;;
37857;SDS011;23695;55.868;37.472;2022-07-12T14:00:11;5.97;;;1.20;;
37857;SDS011;23695;55.868;37.472;2022-07-12T14:02:40;10.43;;;1.17;;
37857;SDS011;23695;55.868;37.472;2022-07-12T14:05:08;2.78;;;1.10;;
37857;SDS011;23695;55.868;37.472;2022-07-12T14:07:38;5.40;;;1.30;;
37857;SDS011;23695;55.868;37.472;2022-07-12T14:10:06;3.03;;;1.40;;
37857;SDS011;23695;55.868;37.472;2022-07-12T14:12:33;6.85;;;1.33;;
37857;SDS011;23695;55.868;37.472;2022-07-12T14:15:00;4.93;;;1.00;;
37857;SDS011;23695;55.868;37.472;2022-07-12T14:17:38;10.25;;;1.77;;
37857;SDS011;23695;55.868;37.472;2022-07-12T14:20:05;13.23;;;2.35;;
37857;SDS011;23695;55.868;37.472;2022-07-12T14:22:33;12.60;;;2.13;;
37857;SDS011;23695;55.868;37.472;2022-07-12T14:24:59;9.25;;;1.95;;
37857;SDS011;23695;55.868;37.472;2022-07-12T14:27:25;10.15;;;2.20;;
37857;SDS011;23695;55.868;37.472;2022-07-12T14:29:51;8.77;;;1.95;;
37857;SDS011;23695;55.868;37.472;2022-07-12T14:32:17;11.95;;;2.42;;
37857;SDS011;23695;55.868;37.472;2022-07-12T14:34:43;9.15;;;1.90;;
37857;SDS011;23695;55.868;37.472;2022-07-12T14:37:09;6.30;;;2.35;;
37857;SDS011;23695;55.868;37.472;2022-07-12T14:39:35;10.35;;;2.10;;
37857;SDS011;23695;55.868;37.472;2022-07-12T14:42:01;6.72;;;2.00;;
37857;SDS011;23695;55.868;37.472;2022-07-12T14:44:27;2.75;;;1.60;;
37857;SDS011;23695;55.868;37.472;2022-07-12T14:46:53;6.05;;;1.88;;
37857;SDS011;23695;55.868;37.472;2022-07-12T14:49:19;3.90;;;1.90;;
37857;SDS011;23695;55.868;37.472;2022-07-12T14:51:47;2.75;;;1.63;;
37857;SDS011;23695;55.868;37.472;2022-07-12T14:54:13;7.95;;;1.88;;